createdAt,value
2022-12-26T00:00:43.529Z,101095.47
2022-12-26T00:03:13.876Z,101093.47
2022-12-26T00:05:44.289Z,101090.69
2022-12-26T00:08:14.499Z,101086.75
2022-12-26T00:10:46.639Z,101081.97
2022-12-26T00:13:39.040Z,101076.41
2022-12-26T00:16:11.436Z,101077.53
2022-12-26T00:18:42.176Z,101073.94
2022-12-26T00:21:15.788Z,101079.53
2022-12-26T00:23:46.695Z,101084.31
2022-12-26T00:26:20.822Z,101076.75
2022-12-26T00:28:51.940Z,101077.88
2022-12-26T00:31:25.697Z,101079.53
2022-12-26T00:33:56.124Z,101083.47
2022-12-26T00:36:30.300Z,101075.09
2022-12-26T00:39:02.343Z,101068.69
2022-12-26T00:41:36.099Z,101069.84
2022-12-26T00:44:06.246Z,101067.88
2022-12-26T00:46:36.355Z,101075.44
2022-12-26T00:49:06.885Z,101085.75
2022-12-26T00:51:36.954Z,101075.72
2022-12-26T00:54:07.369Z,101072.13
2022-12-26T00:56:39.196Z,101064.56
2022-12-26T00:59:09.680Z,101062.91
2022-12-26T01:01:40.347Z,101061.78
2022-12-26T01:04:10.252Z,101067.34
2022-12-26T01:06:40.202Z,101071.00
2022-12-26T01:09:12.345Z,101071.00
2022-12-26T01:11:44.359Z,101088.53
2022-12-26T01:14:17.977Z,101094.13
2022-12-26T01:16:50.077Z,101099.19
2022-12-26T01:19:20.457Z,101102.31
2022-12-26T01:21:50.481Z,101100.19
2022-12-26T01:24:20.935Z,101094.44
2022-12-26T01:26:53.314Z,101093.91
2022-12-26T01:29:23.748Z,101086.72
2022-12-26T01:31:54.056Z,101095.09
2022-12-26T01:34:24.905Z,101091.47
2022-12-26T01:36:55.439Z,101095.09
2022-12-26T01:39:26.041Z,101091.13
2022-12-26T01:41:58.616Z,101084.75
2022-12-26T01:45:05.634Z,101082.28
2022-12-26T01:47:49.823Z,101077.50
2022-12-26T01:50:43.613Z,101082.28
2022-12-26T01:53:19.873Z,101080.66
2022-12-26T01:55:57.491Z,101068.66
2022-12-26T01:58:36.175Z,101053.03
2022-12-26T02:01:09.522Z,101040.28
2022-12-26T02:04:00.123Z,101034.69
2022-12-26T02:06:30.690Z,101038.13
2022-12-26T02:09:02.030Z,101030.91
2022-12-26T02:11:39.535Z,101022.88
2022-12-26T02:14:12.546Z,101049.13
2022-12-26T02:16:43.804Z,101060.56
2022-12-26T02:19:36.155Z,101058.94
2022-12-26T02:22:49.699Z,101052.00
2022-12-26T02:26:08.095Z,101037.25
2022-12-26T02:29:39.855Z,101041.72
2022-12-26T02:32:20.063Z,101033.00
2022-12-26T02:35:02.736Z,101037.13
2022-12-26T02:37:58.897Z,101033.19
2022-12-26T02:40:49.575Z,101034.03
2022-12-26T02:43:32.116Z,101029.25
2022-12-26T02:46:32.228Z,101034.03
2022-12-26T02:49:18.791Z,101032.69
2022-12-26T02:52:20.639Z,101047.78
2022-12-26T02:55:20.245Z,101041.72
2022-12-26T02:58:18.160Z,101029.19
2022-12-26T03:01:09.905Z,101022.00
2022-12-26T03:04:00.747Z,101013.13
2022-12-26T03:06:52.629Z,100996.38
2022-12-26T03:09:47.449Z,101005.91
2022-12-26T03:13:17.294Z,101004.59
2022-12-26T03:16:12.891Z,100996.88
2022-12-26T03:18:57.683Z,101011.94
2022-12-26T03:21:38.698Z,101016.03
2022-12-26T03:24:12.244Z,101020.16
2022-12-26T03:26:50.402Z,101033.78
2022-12-26T03:29:54.655Z,101044.59
2022-12-26T03:32:24.934Z,101052.97
2022-12-26T03:34:54.701Z,101043.47
2022-12-26T03:37:49.097Z,101038.72
2022-12-26T03:41:12.145Z,101044.31
2022-12-26T03:44:28.325Z,101056.28
2022-12-26T03:47:35.643Z,101077.78
2022-12-26T03:50:34.133Z,101077.78
2022-12-26T03:53:32.120Z,101088.59
2022-12-26T03:56:25.826Z,101096.97
2022-12-26T03:59:24.465Z,101101.41
2022-12-26T04:02:15.478Z,101110.59
2022-12-26T04:05:05.853Z,101102.22
2022-12-26T04:07:58.637Z,101101.94
2022-12-26T04:10:57.502Z,101089.13
2022-12-26T04:13:48.751Z,101077.78
2022-12-26T04:16:43.484Z,101081.72
2022-12-26T04:19:26.183Z,101082.00
2022-12-26T04:22:24.265Z,101076.75
2022-12-26T04:25:18.224Z,101069.03
2022-12-26T04:28:07.599Z,101074.63
2022-12-26T04:31:00.299Z,101091.84
2022-12-26T04:33:58.631Z,101077.09
2022-12-26T04:36:56.016Z,101093.00
2022-12-26T04:39:50.620Z,101084.13
2022-12-26T04:42:40.765Z,101075.75
2022-12-26T04:45:17.707Z,101080.19
2022-12-26T04:48:01.280Z,101075.75
2022-12-26T04:50:31.420Z,101073.81
2022-12-26T04:53:01.579Z,101055.09
2022-12-26T04:55:36.265Z,101050.66
2022-12-26T04:58:06.311Z,101049.84
2022-12-26T05:00:37.828Z,101043.44
2022-12-26T05:03:25.044Z,101047.41
2022-12-26T05:06:08.775Z,101046.06
2022-12-26T05:08:59.667Z,101053.59
2022-12-26T05:11:31.577Z,101061.13
2022-12-26T05:14:03.172Z,101063.91
2022-12-26T05:16:51.431Z,101056.41
2022-12-26T05:19:53.127Z,101067.84
2022-12-26T05:22:41.583Z,101070.97
2022-12-26T05:25:36.547Z,101058.69
2022-12-26T05:28:23.510Z,101042.75
2022-12-26T05:30:53.299Z,101034.09
2022-12-26T05:33:42.143Z,101033.75
2022-12-26T05:36:12.500Z,101043.25
2022-12-26T05:38:43.016Z,101046.06
2022-12-26T05:41:13.023Z,101044.09
2022-12-26T05:43:42.763Z,101033.75
2022-12-26T05:46:13.197Z,101037.38
2022-12-26T05:48:45.474Z,101033.75
2022-12-26T05:51:16.395Z,101041.31
2022-12-26T05:53:46.550Z,101070.84
2022-12-26T05:56:18.402Z,101087.25
2022-12-26T05:58:49.313Z,101105.13
2022-12-26T06:01:22.254Z,101119.56
2022-12-26T06:03:57.815Z,101100.56
2022-12-26T06:06:29.226Z,101102.50
2022-12-26T06:09:00.308Z,101103.34
2022-12-26T06:11:31.246Z,101107.78
2022-12-26T06:14:02.343Z,101093.00
2022-12-26T06:16:32.369Z,101079.69
2022-12-26T06:19:04.698Z,101076.72
2022-12-26T06:21:34.920Z,101076.22
2022-12-26T06:24:05.249Z,101078.53
2022-12-26T06:26:35.631Z,101075.75
2022-12-26T06:29:05.848Z,101061.81
2022-12-26T06:31:36.229Z,101053.44
2022-12-26T06:34:08.067Z,101054.25
2022-12-26T06:36:38.501Z,101059.81
2022-12-26T06:39:08.843Z,101066.25
2022-12-26T06:41:38.660Z,101069.84
2022-12-26T06:44:12.937Z,101084.28
2022-12-26T06:46:46.241Z,101081.16
2022-12-26T06:49:18.513Z,101073.63
2022-12-26T06:51:48.265Z,101084.47
2022-12-26T06:54:18.240Z,101076.91
2022-12-26T06:56:48.198Z,101072.16
2022-12-26T06:59:18.313Z,101068.22
2022-12-26T07:01:48.960Z,101063.47
2022-12-26T07:04:21.420Z,101071.81
2022-12-26T07:06:51.685Z,101071.00
2022-12-26T07:09:22.018Z,101071.53
2022-12-26T07:11:53.302Z,101088.44
2022-12-26T07:14:23.012Z,101090.06
2022-12-26T07:16:52.942Z,101086.94
2022-12-26T07:19:24.715Z,101092.72
2022-12-26T07:21:54.949Z,101091.75
2022-12-26T07:24:25.817Z,101092.94
2022-12-26T07:26:55.855Z,101079.34
2022-12-26T07:29:26.288Z,101082.47
2022-12-26T07:31:58.008Z,101079.69
2022-12-26T07:34:32.127Z,101078.41
2022-12-26T07:37:02.048Z,101080.22
2022-12-26T07:39:32.384Z,101081.19
2022-12-26T07:42:02.694Z,101083.66
2022-12-26T07:44:34.486Z,101085.78
2022-12-26T07:47:04.770Z,101085.50
2022-12-26T07:49:37.193Z,101088.75
2022-12-26T07:52:07.793Z,101095.97
2022-12-26T07:54:38.092Z,101101.25
2022-12-26T07:57:46.122Z,101103.72
2022-12-26T07:59:59.057Z,101107.00
2022-12-26T08:02:29.584Z,101123.09
2022-12-26T08:05:01.957Z,101149.56
2022-12-26T08:07:32.205Z,101154.00
2022-12-26T08:10:02.671Z,101148.88
2022-12-26T08:12:34.846Z,101127.38
2022-12-26T08:15:05.291Z,101122.59
2022-12-26T08:17:35.575Z,101120.66
2022-12-26T08:20:08.489Z,101108.63
2022-12-26T08:22:38.628Z,101096.66
2022-12-26T08:25:11.324Z,101085.00
2022-12-26T08:27:41.958Z,101076.13
2022-12-26T08:30:13.902Z,101068.88
2022-12-26T08:32:46.272Z,101067.56
2022-12-26T08:35:18.485Z,101068.72
2022-12-26T08:37:50.216Z,101078.25
2022-12-26T08:40:39.782Z,101073.81
2022-12-26T08:46:02.275Z,101070.03
2022-12-26T08:48:32.942Z,101069.22
2022-12-26T08:51:08.878Z,101079.22
2022-12-26T08:53:39.628Z,101103.56
2022-12-26T08:56:14.265Z,101106.66
2022-12-26T08:58:44.399Z,101115.34
2022-12-26T09:01:18.014Z,101110.91
2022-12-26T09:03:49.063Z,101111.25
2022-12-26T09:06:21.361Z,101107.31
2022-12-26T09:08:52.234Z,101104.53
2022-12-26T09:11:27.166Z,101104.19
2022-12-26T09:13:58.471Z,101074.31
2022-12-26T09:16:37.987Z,101045.56
2022-12-26T09:19:09.833Z,101037.19
2022-12-26T09:21:42.781Z,101051.16
2022-12-26T09:24:19.537Z,101054.28
2022-12-26T09:26:49.366Z,101060.66
2022-12-26T09:29:19.691Z,101058.72
2022-12-26T09:31:49.976Z,101071.53
2022-12-26T09:34:19.977Z,101052.78
2022-12-26T09:36:51.879Z,101028.47
2022-12-26T09:39:22.088Z,101034.91
2022-12-26T09:42:06.314Z,101031.75
2022-12-26T09:44:55.136Z,101051.81
2022-12-26T09:47:35.328Z,101056.41
2022-12-26T09:50:15.188Z,101055.09
2022-12-26T09:52:52.487Z,101061.31
2022-12-26T09:55:40.691Z,101038.22
2022-12-26T09:58:25.945Z,101038.53
2022-12-26T10:01:03.946Z,101026.84
2022-12-26T10:03:41.344Z,101020.75
2022-12-26T10:06:19.015Z,101028.63
2022-12-26T10:09:33.530Z,101036.84
2022-12-26T10:12:32.147Z,101039.28
2022-12-26T10:15:37.010Z,101038.28
2022-12-26T10:18:31.158Z,101034.34
2022-12-26T10:21:30.826Z,101028.25
2022-12-26T10:24:09.477Z,101029.91
2022-12-26T10:26:46.384Z,101027.47
2022-12-26T10:29:26.719Z,101025.47
2022-12-26T10:32:02.969Z,101025.47
2022-12-26T10:34:39.599Z,101019.41
2022-12-26T10:37:20.484Z,101019.06
2022-12-26T10:39:57.264Z,101029.91
2022-12-26T10:42:36.331Z,101031.56
2022-12-26T10:45:18.464Z,101032.38
2022-12-26T10:47:51.627Z,101041.59
2022-12-26T10:50:27.934Z,101043.22
2022-12-26T10:52:59.828Z,101039.63
2022-12-26T10:55:34.748Z,101022.03
2022-12-26T10:58:19.051Z,101030.75
2022-12-26T11:00:49.666Z,101043.38
2022-12-26T11:03:22.477Z,101042.09
2022-12-26T11:06:07.491Z,101046.03
2022-12-26T11:08:49.939Z,101035.53
2022-12-26T11:11:26.979Z,101037.84
2022-12-26T11:14:03.690Z,101028.16
2022-12-26T11:16:38.127Z,101023.38
2022-12-26T11:19:08.764Z,101022.56
2022-12-26T11:21:38.655Z,101017.78
2022-12-26T11:24:21.595Z,101015.78
2022-12-26T11:26:51.885Z,101025.50
2022-12-26T11:29:26.073Z,101032.41
2022-12-26T11:32:01.200Z,101037.34
2022-12-26T11:34:37.851Z,101029.41
2022-12-26T11:37:10.276Z,101030.75
2022-12-26T11:39:41.514Z,101024.81
2022-12-26T11:42:20.269Z,101030.91
2022-12-26T11:44:56.040Z,101040.09
2022-12-26T11:47:29.926Z,101035.34
2022-12-26T11:50:06.825Z,101029.75
2022-12-26T11:52:40.903Z,101033.34
2022-12-26T11:55:33.965Z,101047.31
2022-12-26T11:58:21.593Z,101040.09
2022-12-26T12:01:18.366Z,101045.69
2022-12-26T12:03:51.529Z,101046.53
2022-12-26T12:06:58.372Z,101045.38
2022-12-26T12:09:43.670Z,101046.16
2022-12-26T12:12:24.859Z,101041.72
2022-12-26T12:15:13.656Z,101048.00
2022-12-26T12:17:57.994Z,101049.47
2022-12-26T12:20:39.094Z,101051.13
2022-12-26T12:23:43.348Z,101048.66
2022-12-26T12:26:20.339Z,101043.38
2022-12-26T12:29:21.379Z,101048.50
2022-12-26T12:32:20.134Z,101051.63
2022-12-26T12:35:31.799Z,101042.44
2022-12-26T12:38:27.034Z,101046.03
2022-12-26T12:41:26.855Z,101045.72
2022-12-26T12:44:06.975Z,101043.38
2022-12-26T12:46:51.791Z,101039.13
2022-12-26T12:49:55.214Z,101044.03
2022-12-26T12:52:46.617Z,101025.81
2022-12-26T12:55:45.624Z,101025.47
2022-12-26T12:58:28.845Z,101024.81
2022-12-26T13:01:06.804Z,101019.34
2022-12-26T13:03:47.880Z,101016.22
2022-12-26T13:06:26.931Z,101016.38
2022-12-26T13:14:12.801Z,101011.25
2022-12-26T13:16:49.174Z,101021.66
2022-12-26T13:21:57.251Z,101007.16
2022-12-26T13:24:35.637Z,100993.53
2022-12-26T13:27:16.449Z,100994.34
2022-12-26T13:29:50.491Z,101043.03
2022-12-26T13:32:25.877Z,101031.03
2022-12-26T13:34:59.482Z,101032.69
2022-12-26T13:38:01.032Z,101042.53
2022-12-26T13:40:34.913Z,101042.88
2022-12-26T13:43:35.945Z,101057.66
2022-12-26T13:46:06.581Z,101067.53
2022-12-26T13:49:36.645Z,101114.25
2022-12-26T13:52:35.907Z,101104.22
2022-12-26T13:55:35.127Z,101104.22
2022-12-26T13:58:53.501Z,101108.16
2022-12-26T14:01:40.920Z,101114.91
2022-12-26T14:04:39.083Z,101118.50
2022-12-26T14:07:29.912Z,101115.72
2022-12-26T14:10:12.579Z,101119.34
2022-12-26T14:13:06.290Z,101107.00
2022-12-26T14:15:53.574Z,101110.13
2022-12-26T14:18:40.403Z,101116.56
2022-12-26T14:21:43.692Z,101115.72
2022-12-26T14:24:33.319Z,101109.66
2022-12-26T14:27:29.407Z,101111.59
2022-12-26T14:30:23.755Z,101101.91
2022-12-26T14:33:20.989Z,101115.09
2022-12-26T14:36:18.474Z,101110.97
2022-12-26T14:39:00.978Z,101113.75
2022-12-26T14:42:09.070Z,101112.94
2022-12-26T14:44:46.879Z,101105.22
2022-12-26T14:47:44.455Z,101117.53
2022-12-26T14:50:49.071Z,101126.25
2022-12-26T14:53:37.505Z,101136.13
2022-12-26T14:56:37.619Z,101133.34
2022-12-26T14:59:30.325Z,101144.84
2022-12-26T15:02:13.058Z,101147.97
2022-12-26T15:05:10.611Z,101145.50
2022-12-26T15:08:27.901Z,101153.69
2022-12-26T15:11:40.837Z,101153.22
2022-12-26T15:14:51.188Z,101169.84
2022-12-26T15:17:33.521Z,101180.81
2022-12-26T15:20:50.849Z,101191.03
2022-12-26T15:24:11.865Z,101194.13
2022-12-26T15:27:16.069Z,101213.19
2022-12-26T15:30:13.240Z,101235.56
2022-12-26T15:32:57.811Z,101231.75
2022-12-26T15:35:38.637Z,101237.97
2022-12-26T15:38:39.345Z,101246.50
2022-12-26T15:41:19.789Z,101252.38
2022-12-26T15:44:16.471Z,101263.88
2022-12-26T15:46:56.305Z,101259.44
2022-12-26T15:49:46.698Z,101255.00
2022-12-26T15:52:31.833Z,101260.59
2022-12-26T15:55:33.125Z,101260.59
2022-12-26T15:58:17.003Z,101252.53
2022-12-26T16:00:53.913Z,101258.94
2022-12-26T16:03:38.715Z,101258.13
2022-12-26T16:06:35.107Z,101268.16
2022-12-26T16:09:27.614Z,101269.63
2022-12-26T16:12:01.159Z,101270.44
2022-12-26T16:14:36.127Z,101266.84
2022-12-26T16:17:24.991Z,101264.84
2022-12-26T16:19:57.008Z,101274.38
2022-12-26T16:22:49.897Z,101285.56
2022-12-26T16:25:27.496Z,101297.38
2022-12-26T16:28:01.567Z,101301.31
2022-12-26T16:30:39.664Z,101302.97
2022-12-26T16:33:10.638Z,101305.25
2022-12-26T16:35:44.180Z,101303.28
2022-12-26T16:38:20.045Z,101307.72
2022-12-26T16:40:56.058Z,101295.75
2022-12-26T16:43:30.267Z,101288.50
2022-12-26T16:46:05.747Z,101298.03
2022-12-26T16:48:39.095Z,101292.75
2022-12-26T16:51:36.032Z,101299.81
2022-12-26T16:54:27.844Z,101302.09
2022-12-26T16:57:08.531Z,101299.97
2022-12-26T16:59:54.170Z,101302.56
2022-12-26T17:02:32.336Z,101307.66
2022-12-26T17:05:06.668Z,101298.25
2022-12-26T17:07:46.339Z,101319.28
2022-12-26T17:10:24.591Z,101320.75
2022-12-26T17:13:02.260Z,101314.66
2022-12-26T17:15:37.907Z,101335.66
2022-12-26T17:18:38.368Z,101344.03
2022-12-26T17:21:36.376Z,101349.09
2022-12-26T17:24:33.123Z,101348.59
2022-12-26T17:27:19.794Z,101356.16
2022-12-26T17:29:59.282Z,101353.03
2022-12-26T17:32:41.120Z,101345.16
2022-12-26T17:35:17.328Z,101348.47
2022-12-26T17:37:49.533Z,101332.22
2022-12-26T17:40:29.860Z,101338.00
2022-12-26T17:43:25.084Z,101342.41
2022-12-26T17:45:56.830Z,101350.50
2022-12-26T17:48:27.839Z,101349.34
2022-12-26T17:51:01.163Z,101351.00
2022-12-26T17:53:34.242Z,101345.91
2022-12-26T17:56:09.075Z,101350.34
2022-12-26T17:58:39.443Z,101358.09
2022-12-26T18:01:17.428Z,101361.69
2022-12-26T18:03:52.500Z,101358.59
2022-12-26T18:06:24.661Z,101359.41
2022-12-26T18:08:55.269Z,101363.50
2022-12-26T18:11:25.937Z,101367.16
2022-12-26T18:13:56.127Z,101365.16
2022-12-26T18:16:29.915Z,101380.78
2022-12-26T18:19:00.404Z,101381.63
2022-12-26T18:21:30.974Z,101384.41
2022-12-26T18:24:01.279Z,101384.09
2022-12-26T18:26:33.289Z,101385.72
2022-12-26T18:29:03.986Z,101390.97
2022-12-26T18:31:36.005Z,101390.97
2022-12-26T18:34:06.560Z,101395.75
2022-12-26T18:36:41.479Z,101390.97
2022-12-26T18:39:16.020Z,101401.00
2022-12-26T18:41:46.222Z,101407.44
2022-12-26T18:44:19.561Z,101397.06
2022-12-26T18:46:52.190Z,101392.00
2022-12-26T18:49:22.528Z,101390.03
2022-12-26T18:51:52.485Z,101399.25
2022-12-26T18:54:22.804Z,101400.88
2022-12-26T18:56:53.194Z,101406.97
2022-12-26T18:59:23.273Z,101405.00
2022-12-26T19:01:55.577Z,101409.44
2022-12-26T19:04:25.624Z,101422.28
2022-12-26T19:06:56.047Z,101412.25
2022-12-26T19:09:26.370Z,101422.09
2022-12-26T19:11:56.437Z,101411.72
2022-12-26T19:14:26.791Z,101423.72
2022-12-26T19:16:59.093Z,101432.09
2022-12-26T19:19:32.159Z,101434.88
2022-12-26T19:22:02.289Z,101420.91
2022-12-26T19:24:34.371Z,101415.03
2022-12-26T19:27:05.071Z,101437.38
2022-12-26T19:29:35.856Z,101441.81
2022-12-26T19:32:08.289Z,101448.72
2022-12-26T19:34:38.034Z,101430.31
2022-12-26T19:37:08.099Z,101439.22
2022-12-26T19:39:38.516Z,101451.19
2022-12-26T19:42:08.913Z,101451.19
2022-12-26T19:44:39.272Z,101462.06
2022-12-26T19:47:13.022Z,101464.34
2022-12-26T19:49:43.843Z,101461.84
2022-12-26T19:52:15.198Z,101451.00
2022-12-26T19:54:46.160Z,101451.34
2022-12-26T19:57:16.528Z,101446.91
2022-12-26T19:59:47.213Z,101442.44
2022-12-26T20:02:19.473Z,101435.22
2022-12-26T20:04:49.946Z,101430.78
2022-12-26T20:07:20.685Z,101431.91
2022-12-26T20:09:50.676Z,101427.47
2022-12-26T20:12:20.613Z,101435.84
2022-12-26T20:14:51.566Z,101427.78
2022-12-26T20:17:24.532Z,101420.25
2022-12-26T20:19:54.727Z,101443.75
2022-12-26T20:22:25.411Z,101410.22
2022-12-26T20:24:55.814Z,101396.06
2022-12-26T20:27:26.251Z,101410.69
2022-12-26T20:29:56.407Z,101412.44
2022-12-26T20:32:28.408Z,101410.00
2022-12-26T20:34:58.776Z,101412.28
2022-12-26T20:37:29.968Z,101407.00
2022-12-26T20:40:01.407Z,101408.97
2022-12-26T20:42:31.832Z,101412.09
2022-12-26T20:45:01.536Z,101410.44
2022-12-26T20:47:34.374Z,101419.94
2022-12-26T20:50:04.494Z,101410.25
2022-12-26T20:52:35.095Z,101418.94
2022-12-26T20:55:06.011Z,101405.09
2022-12-26T20:57:36.328Z,101405.25
2022-12-26T21:00:08.490Z,101402.25
2022-12-26T21:02:40.569Z,101414.88
2022-12-26T21:05:11.172Z,101408.78
2022-12-26T21:07:41.517Z,101417.16
2022-12-26T21:10:12.593Z,101425.53
2022-12-26T21:12:42.436Z,101402.06
2022-12-26T21:15:13.392Z,101397.31
2022-12-26T21:17:45.366Z,101406.50
2022-12-26T21:20:15.991Z,101403.72
2022-12-26T21:22:46.388Z,101401.75
2022-12-26T21:25:16.197Z,101410.94
2022-12-26T21:27:49.692Z,101412.59
2022-12-26T21:30:20.536Z,101407.00
2022-12-26T21:32:52.970Z,101411.75
2022-12-26T21:35:22.837Z,101410.13
2022-12-26T21:37:53.652Z,101410.94
2022-12-26T21:40:25.846Z,101406.19
2022-12-26T21:42:55.474Z,101407.34
2022-12-26T21:45:26.689Z,101408.97
2022-12-26T21:47:58.739Z,101405.88
2022-12-26T21:50:29.025Z,101401.44
2022-12-26T21:52:59.357Z,101406.69
2022-12-26T21:55:28.010Z,101405.88
2022-12-26T21:57:59.315Z,101411.97
2022-12-26T22:00:29.811Z,101406.38
2022-12-26T22:03:18.785Z,101406.06
2022-12-26T22:05:49.317Z,101412.44
2022-12-26T22:08:19.727Z,101414.09
2022-12-26T22:11:07.765Z,101405.44
2022-12-26T22:13:44.859Z,101412.66
2022-12-26T22:16:16.704Z,101405.44
2022-12-26T22:18:50.272Z,101400.66
2022-12-26T22:21:23.608Z,101407.91
2022-12-26T22:23:54.913Z,101398.38
2022-12-26T22:26:26.039Z,101407.56
2022-12-26T22:28:56.602Z,101410.06
2022-12-26T22:31:30.573Z,101413.38
2022-12-26T22:34:05.654Z,101409.41
2022-12-26T22:36:36.369Z,101417.47
2022-12-26T22:39:07.470Z,101414.38
2022-12-26T22:41:38.506Z,101417.66
2022-12-26T22:44:08.702Z,101420.97
2022-12-26T22:46:39.475Z,101421.44
2022-12-26T22:49:12.112Z,101421.16
2022-12-26T22:51:44.146Z,101421.66
2022-12-26T22:54:14.993Z,101421.00
2022-12-26T22:56:44.833Z,101427.94
2022-12-26T22:59:33.820Z,101420.06
2022-12-26T23:02:05.619Z,101423.69
2022-12-26T23:04:39.690Z,101427.28
2022-12-26T23:07:14.583Z,101433.38
2022-12-26T23:09:44.947Z,101419.09
2022-12-26T23:12:33.128Z,101422.38
2022-12-26T23:15:03.632Z,101423.22
2022-12-26T23:17:57.706Z,101424.88
2022-12-26T23:20:54.096Z,101421.25
2022-12-26T23:23:25.208Z,101438.00
2022-12-26T23:25:54.884Z,101440.47
2022-12-26T23:28:42.660Z,101427.00
2022-12-26T23:31:12.784Z,101434.25
2022-12-26T23:33:43.680Z,101426.06
2022-12-26T23:36:16.105Z,101432.47
2022-12-26T23:38:46.576Z,101441.38
2022-12-26T23:41:16.655Z,101443.84
2022-12-26T23:43:46.924Z,101446.34
2022-12-26T23:46:17.120Z,101446.03
2022-12-26T23:48:47.269Z,101444.84
2022-12-26T23:51:20.037Z,101461.00
2022-12-26T23:53:50.451Z,101444.75
2022-12-26T23:56:20.806Z,101456.09
2022-12-26T23:58:51.201Z,101461.34
